Airport View

Enter AWOS ICAO identifier for current METAR.

ex. KFNL

KFAT 080553Z 30007KT 10SM CLR 28/13 A2987 RMK AO2 SLP109 T02830133 10344 20283 51014

8 Aug 2020 06:05

Phone: 559-255-3413

Other Area AWOS: KFCH - KMAE - KHJO - KNLC

TAF KFAT 080520Z 0806/0906 29006KT P6SM SKC